Gabrene, Bulgaria

02:06 PM EET on Siječanj 22, 2017 (GMT +0200)
Kolarovo | | Change Station

Elev 1329 ft 41.36 °N, 23.10 °E | Updated 3 seconds ago

Vedro
Vedro
28.6 °F
Feels Like 29 °F
S
2.3
Vjetar Varijabla smjera vjetra Vjetar from SSZ
Gusts 2.3 mph

Danas
High -- | Low -- °F
--% Chance of Precip.
Jučer
High -- | Low -- °F
Precip. -- u
Pritisak 30.48 u
Vidljivost 6.2 milja
Oblaci Few 500 ft
Subjektivni osjećaj 29 °F
Točka rose 24 °F
Vlažnost 83%
Kiša 0.00 u
Visina snijega Not available.
7:47 AM 5:31 PM
Mlađak, 27% visible
METAR LGTS 221150Z 28006KT 9999 FEW005 06/M01 Q1032 NOSIG
Pritisak 30.48 u
Vidljivost 6.2 milja
Oblaci Few 500 ft
Subjektivni osjećaj 29 °F
Točka rose 24 °F
Vlažnost 83%
Kiša 0.00 u
Visina snijega Not available.
7:47 AM 5:31 PM
Mlađak, 27% visible
METAR LGTS 221150Z 28006KT 9999 FEW005 06/M01 Q1032 NOSIG

Get Your Daily Forecast Email!

Thanks for signing up!

Be on the lookout for a verification email in your inbox.

You'll start receiving the daily forecast at 8 AM.

×

10-Day Weather Forecast

×

Almanac

Astronomija

Jan. 22, 2017 Izlazak Zalazak
Trenutno vrijeme
Civilni sumrak
Nautički sumrak
Astronomski sumrak
Moon
Duljina trajanja vidljive svjetlosti
Duljina dana
Tomorrow will be .
, % of the Moon is Illuminated

Današnji ekstremi

Country Highs Country Lows

Community

WunderPhotos

Upload Photos

1,962,540 photos uploaded!

WunderBlog® & News

Nearby

Kvalitet zraka

  Kvalitet zraka AQ Index Zagadjenje
Not available.

Visina snijega

Station Depth Visina

Earthquake Activity

Grad Distance Mag. Time & Date
Minimum magnitude displayed is 2.5.

Coastal Water Temperatures

Mjesto Temperatura

Stations

Nearby Weather Stations

Lokacija stanice Temp. Subjektivni osjećaj Točka rose Vlažnost Vjetar Precip. Elev Ažurirano Tip